Impacts METAR Board
IDs:

KFLL - Ft Lauderdale-Hollyw, FL, US

Updated at: 2200 UTC 14 Aug 2018
Potential Impact None Slight Moderate High
Time 14/10Z 14/11Z 14/12Z 14/13Z 14/14Z 14/15Z 14/16Z 14/17Z 14/18Z 14/19Z 14/20Z 14/21Z 14/22Z
Temp79 81 83 85 86 87 86 88 89 89 88 86 86
Dewpt77 78 74 77 78 77 76 75 76 75 73 75 76
Altim30.04 30.05 30.07 30.07 30.08 30.09 30.09 30.08 30.07 30.07 30.04 30.02 30.02
VIS10 10 10 10 10 10 10 10 10 10 10 10 10
CIG-- -- 250 -- -- -- -- -- -- 250 250 250 250
CoverFEWSCTBKNSCTFEWSCTSCTSCTSCTBKNBKNBKNBKN
FltCatVFRVFRVFRVFRVFRVFRVFRVFRVFRVFRVFRVFRVFR
WX--------------VCTS----------
WDir0100130130130120150160110140130110120
WSpd0 6 7 7 7 10 9 12 12 10 10 12 10
WGst-- -- -- -- -- 18 -- 18 -- 18 -- -- --
Raw hourly METARs
KFLL 140953Z 00000KT 10SM FEW026 FEW250 26/25 A3004 RMK AO2 SLP172 T02610250
KFLL 141053Z 10006KT 10SM FEW027 FEW045 SCT250 27/26 A3005 RMK AO2 SLP175 CB DSNT SE MOV NW T02720256
KFLL 141153Z 13007KT 10SM FEW028 BKN250 28/23 A3007 RMK AO2 SLP180 70076 T02830233 10283 20256 53010
KFLL 141253Z 13007KT 10SM FEW028 FEW100 SCT250 29/25 A3007 RMK AO2 SLP182 T02940250
KFLL 141353Z 13007KT 10SM FEW028TCU FEW100 FEW250 30/26 A3008 RMK AO2 LTG DSNT SW SLP186 TCU SW T03000256
KFLL 141453Z 12010G18KT 10SM FEW025 SCT150 SCT250 31/25 A3009 RMK AO2 LTG DSNT SW-N SLP189 CB DSNT N MOV NW T03060250 53009
KFLL 141553Z 15009KT 100V170 10SM FEW030 SCT150 SCT250 30/24 A3009 RMK AO2 TSE29 SLP189 CB DSNT W AND NW MOV NW T03000244
KFLL 141700Z 16012G18KT 10SM VCTS FEW030 FEW150 SCT250 31/24 A3008 RMK AO2 LTG DSNT SW AND W CB DSNT SW MOV NW T03110239
KFLL 141753Z 11012KT 10SM FEW030 FEW150 SCT250 32/24 A3007 RMK AO2 SLP183 T03170244 10317 20283 58007
KFLL 141853Z 14010G18KT 10SM FEW035 SCT150 BKN250 32/24 A3007 RMK AO2 LTG DSNT NW SLP181 T03170239
KFLL 141953Z 13010KT 10SM FEW035 FEW150 BKN250 31/23 A3004 RMK AO2 SLP172 T03110228
KFLL 142053Z 11012KT 10SM FEW035 FEW150 BKN250 30/24 A3002 RMK AO2 SLP166 T03000239 58017
KFLL 142153Z 12010KT 10SM FEW033 FEW150 BKN250 30/24 A3002 RMK AO2 SLP166 T03000244



Page loaded:  22:03 UTC  |   03:03 PM Pacific  |   04:03 PM Mountain  |   05:03 PM Central  |   06:03 PM Eastern

 

ADVISORIES

FORECASTS

FORECASTS

OBSERVATIONS

USER TOOLS

ABOUT US